createdAt,value
2019-01-24T00:03:40.680Z,117.53
2019-01-24T00:08:44.893Z,112.37
2019-01-24T00:13:49.104Z,106.20
2019-01-24T00:18:53.380Z,97.63
2019-01-24T00:23:57.677Z,100.93
2019-01-24T00:29:01.876Z,100.03
2019-01-24T00:34:06.151Z,86.23
2019-01-24T00:39:10.353Z,92.80
2019-01-24T00:44:14.548Z,84.10
2019-01-24T00:49:18.865Z,82.27
2019-01-24T00:54:23.055Z,79.13
2019-01-24T00:59:27.235Z,67.07
2019-01-24T01:04:31.415Z,74.27
2019-01-24T01:09:35.635Z,71.63
2019-01-24T01:14:39.830Z,68.63
2019-01-24T01:19:44.088Z,59.20
2019-01-24T01:24:48.282Z,65.60
2019-01-24T01:29:52.486Z,61.27
2019-01-24T01:34:56.687Z,62.50
2019-01-24T01:40:00.887Z,51.97
2019-01-24T01:45:06.648Z,55.50
2019-01-24T01:50:15.107Z,54.23
2019-01-24T01:55:19.391Z,51.27
2019-01-24T02:00:24.845Z,51.83
2019-01-24T02:05:29.117Z,54.33
2019-01-24T02:10:33.313Z,52.07
2019-01-24T02:15:37.514Z,51.80
2019-01-24T02:20:41.694Z,57.10
2019-01-24T02:25:45.912Z,52.87
2019-01-24T02:30:50.132Z,58.47
2019-01-24T02:35:54.332Z,51.50
2019-01-24T02:40:58.511Z,54.03
2019-01-24T02:46:02.768Z,53.47
2019-01-24T02:51:06.959Z,50.43
2019-01-24T02:56:11.131Z,50.43
2019-01-24T03:01:15.328Z,47.77
2019-01-24T03:06:19.501Z,49.57
2019-01-24T03:11:23.680Z,40.77
2019-01-24T03:16:27.871Z,42.50
2019-01-24T03:21:32.064Z,46.03
2019-01-24T03:26:36.264Z,48.40
2019-01-24T03:31:40.516Z,43.47
2019-01-24T03:36:44.716Z,42.63
2019-01-24T03:41:48.922Z,44.70
2019-01-24T03:46:53.103Z,45.00
2019-01-24T03:51:57.308Z,43.33
2019-01-24T03:57:01.492Z,44.00
2019-01-24T04:02:05.688Z,50.60
2019-01-24T04:07:09.868Z,46.33
2019-01-24T04:12:14.055Z,42.73
2019-01-24T04:17:18.219Z,39.50
2019-01-24T04:22:22.397Z,41.37
2019-01-24T04:27:26.579Z,44.97
2019-01-24T04:32:30.784Z,43.07
2019-01-24T04:37:34.977Z,40.93
2019-01-24T04:42:39.168Z,41.90
2019-01-24T04:47:43.567Z,48.40
2019-01-24T04:52:47.888Z,37.63
2019-01-24T04:57:52.040Z,40.30
2019-01-24T05:02:56.443Z,38.50
2019-01-24T05:08:00.696Z,39.70
2019-01-24T05:13:04.919Z,41.43
2019-01-24T05:18:09.170Z,45.17
2019-01-24T05:23:13.432Z,45.07
2019-01-24T05:28:17.639Z,44.20
2019-01-24T05:33:21.831Z,42.93
2019-01-24T05:38:26.040Z,43.60
2019-01-24T05:43:30.317Z,46.03
2019-01-24T05:48:34.578Z,43.33
2019-01-24T05:53:38.820Z,46.50
2019-01-24T05:58:43.003Z,42.73
2019-01-24T06:03:47.190Z,42.67
2019-01-24T06:08:51.353Z,48.90
2019-01-24T06:13:55.527Z,52.80
2019-01-24T06:18:59.715Z,53.13
2019-01-24T06:24:03.894Z,56.53
2019-01-24T06:29:08.107Z,53.17
2019-01-24T06:34:12.578Z,55.67
2019-01-24T06:39:16.770Z,55.23
2019-01-24T06:44:21.321Z,55.60
2019-01-24T06:49:25.711Z,53.47
2019-01-24T06:54:29.966Z,48.17
2019-01-24T06:59:34.155Z,48.23
2019-01-24T07:04:38.376Z,44.67
2019-01-24T07:09:42.566Z,47.30
2019-01-24T07:14:46.777Z,52.53
2019-01-24T07:19:51.048Z,50.77
2019-01-24T07:24:55.282Z,45.53
2019-01-24T07:29:59.483Z,48.63
2019-01-24T07:35:04.004Z,45.70
2019-01-24T07:40:12.537Z,46.03
2019-01-24T07:45:25.608Z,45.20
2019-01-24T07:50:29.885Z,44.20
2019-01-24T07:55:34.083Z,39.63
2019-01-24T08:00:39.196Z,42.97
2019-01-24T08:05:43.423Z,41.70
2019-01-24T08:10:47.618Z,46.40
2019-01-24T08:15:51.887Z,48.37
2019-01-24T08:20:56.148Z,52.63
2019-01-24T08:26:00.371Z,46.57
2019-01-24T08:31:04.840Z,48.30
2019-01-24T08:36:15.428Z,52.80
2019-01-24T08:41:15.066Z,54.43
2019-01-24T08:46:19.263Z,54.37
2019-01-24T08:51:23.471Z,53.73
2019-01-24T08:56:27.757Z,49.60
2019-01-24T09:01:31.988Z,55.07
2019-01-24T09:06:36.336Z,47.37
2019-01-24T09:11:40.570Z,49.27
2019-01-24T09:16:44.748Z,50.90
2019-01-24T09:21:48.972Z,49.53
2019-01-24T09:26:53.343Z,53.23
2019-01-24T09:31:57.545Z,51.70
2019-01-24T09:37:01.747Z,47.13
2019-01-24T09:42:06.020Z,49.60
2019-01-24T09:47:10.206Z,51.03
2019-01-24T09:52:15.630Z,53.27
2019-01-24T09:57:19.816Z,50.50
2019-01-24T10:02:24.036Z,50.43
2019-01-24T10:07:29.339Z,51.47
2019-01-24T10:12:33.526Z,46.13
2019-01-24T10:17:37.691Z,45.83
2019-01-24T10:22:41.893Z,46.17
2019-01-24T10:27:46.135Z,47.20
2019-01-24T10:32:50.574Z,42.73
2019-01-24T10:37:55.569Z,48.90
2019-01-24T10:42:59.852Z,44.73
2019-01-24T10:48:04.220Z,46.77
2019-01-24T10:53:08.556Z,48.90
2019-01-24T10:58:12.741Z,46.20
2019-01-24T11:03:18.429Z,43.47
2019-01-24T11:08:22.615Z,47.13
2019-01-24T11:13:26.856Z,47.07
2019-01-24T11:18:31.124Z,45.10
2019-01-24T11:23:35.403Z,50.37
2019-01-24T11:28:39.608Z,42.10
2019-01-24T11:33:43.816Z,49.73
2019-01-24T11:38:48.025Z,48.87
2019-01-24T11:43:52.297Z,42.47
2019-01-24T11:48:56.536Z,48.93
2019-01-24T11:54:00.744Z,49.83
2019-01-24T11:59:05.051Z,46.13
2019-01-24T12:04:09.519Z,52.83
2019-01-24T12:09:13.762Z,45.63
2019-01-24T12:14:18.031Z,48.40
2019-01-24T12:19:22.237Z,44.10
2019-01-24T12:24:26.429Z,47.23
2019-01-24T12:29:30.714Z,48.47
2019-01-24T12:34:34.980Z,47.90
2019-01-24T12:39:40.805Z,46.20
2019-01-24T12:44:45.084Z,44.20
2019-01-24T12:49:49.293Z,44.30
2019-01-24T12:54:53.513Z,51.57
2019-01-24T12:59:57.728Z,55.73
2019-01-24T13:05:01.422Z,53.60
2019-01-24T13:10:06.421Z,45.57
2019-01-24T13:15:11.565Z,48.50
2019-01-24T13:20:17.277Z,47.70
2019-01-24T13:25:34.072Z,46.83
2019-01-24T13:30:38.431Z,44.27
2019-01-24T13:35:42.639Z,45.07
2019-01-24T13:40:46.872Z,44.70
2019-01-24T13:45:51.098Z,46.50
2019-01-24T13:50:55.418Z,47.67
2019-01-24T13:55:59.643Z,42.90
2019-01-24T14:01:03.842Z,57.07
2019-01-24T14:06:08.068Z,47.50
2019-01-24T14:11:18.011Z,53.50
2019-01-24T14:16:18.255Z,45.60
2019-01-24T14:21:22.538Z,45.13
2019-01-24T14:26:26.864Z,46.40
2019-01-24T14:31:31.080Z,49.07
2019-01-24T14:36:35.320Z,50.20
2019-01-24T14:41:39.525Z,53.90
2019-01-24T14:46:43.708Z,44.87
2019-01-24T14:51:47.964Z,38.90
2019-01-24T14:56:52.191Z,46.47
2019-01-24T15:01:56.394Z,44.97
2019-01-24T15:07:00.674Z,47.10
2019-01-24T15:12:05.256Z,41.67
2019-01-24T15:17:09.567Z,41.80
2019-01-24T15:22:13.791Z,40.83
2019-01-24T15:27:18.103Z,43.23
2019-01-24T15:32:22.408Z,41.20
2019-01-24T15:37:26.668Z,41.30
2019-01-24T15:42:30.896Z,40.47
2019-01-24T15:47:35.110Z,35.53
2019-01-24T15:52:39.417Z,36.37
2019-01-24T15:57:43.792Z,35.87
2019-01-24T16:02:48.045Z,39.97
2019-01-24T16:07:52.315Z,45.10
2019-01-24T16:12:56.559Z,37.73
2019-01-24T16:18:00.974Z,36.27
2019-01-24T16:23:05.832Z,34.10
2019-01-24T16:28:10.229Z,39.70
2019-01-24T16:33:14.577Z,38.90
2019-01-24T16:38:18.933Z,38.47
2019-01-24T16:43:23.219Z,37.50
2019-01-24T16:48:27.398Z,36.03
2019-01-24T16:53:31.643Z,37.93
2019-01-24T16:58:38.151Z,41.20
2019-01-24T17:03:42.601Z,38.23
2019-01-24T17:08:48.632Z,37.27
2019-01-24T17:13:53.068Z,39.23
2019-01-24T17:18:57.650Z,38.77
2019-01-24T17:24:02.051Z,37.30
2019-01-24T17:29:06.572Z,39.03
2019-01-24T17:34:10.803Z,40.60
2019-01-24T17:39:15.128Z,38.70
2019-01-24T17:44:19.486Z,41.70
2019-01-24T17:49:23.710Z,49.30
2019-01-24T17:54:28.111Z,38.87
2019-01-24T17:59:32.506Z,38.90
2019-01-24T18:04:37.202Z,38.93
2019-01-24T18:09:41.545Z,39.30
2019-01-24T18:14:45.927Z,45.50
2019-01-24T18:19:50.136Z,40.80
2019-01-24T18:24:54.489Z,39.07
2019-01-24T18:29:58.783Z,38.57
2019-01-24T18:35:03.155Z,43.27
2019-01-24T18:40:08.252Z,38.10
2019-01-24T18:45:16.497Z,41.63
2019-01-24T18:50:21.924Z,42.73
2019-01-24T18:55:26.168Z,40.63
2019-01-24T19:00:38.852Z,39.10
2019-01-24T19:05:44.064Z,42.60
2019-01-24T19:10:48.423Z,48.10
2019-01-24T19:15:52.810Z,46.47
2019-01-24T19:20:57.087Z,44.90
2019-01-24T19:26:01.354Z,47.60
2019-01-24T19:31:05.881Z,47.07
2019-01-24T19:36:10.247Z,50.87
2019-01-24T19:41:15.055Z,46.87
2019-01-24T19:46:19.311Z,51.50
2019-01-24T19:51:23.563Z,50.40
2019-01-24T19:56:28.855Z,46.23
2019-01-24T20:01:33.196Z,51.53
2019-01-24T20:06:37.481Z,48.33
2019-01-24T20:11:41.789Z,47.57
2019-01-24T20:16:46.101Z,50.57
2019-01-24T20:21:50.353Z,52.63
2019-01-24T20:26:54.769Z,47.50
2019-01-24T20:31:59.116Z,51.87
2019-01-24T20:37:03.550Z,51.57
2019-01-24T20:42:07.975Z,49.93
2019-01-24T20:47:12.433Z,51.17
2019-01-24T20:52:16.869Z,56.53
2019-01-24T20:57:21.722Z,50.77
2019-01-24T21:02:26.065Z,52.60
2019-01-24T21:07:30.481Z,52.20
2019-01-24T21:12:34.811Z,46.20
2019-01-24T21:17:39.248Z,49.63
2019-01-24T21:22:43.566Z,57.67
2019-01-24T21:27:47.903Z,55.67
2019-01-24T21:32:53.934Z,54.37
2019-01-24T21:37:58.280Z,63.60
2019-01-24T21:43:02.533Z,54.47
2019-01-24T21:48:07.680Z,59.13
2019-01-24T21:53:12.057Z,56.23
2019-01-24T21:58:16.406Z,57.23
2019-01-24T22:03:20.829Z,52.77
2019-01-24T22:08:25.325Z,57.40
2019-01-24T22:13:29.790Z,51.17
2019-01-24T22:18:34.230Z,51.70
2019-01-24T22:23:38.616Z,50.67
2019-01-24T22:28:42.848Z,49.33
2019-01-24T22:33:47.143Z,51.83
2019-01-24T22:38:51.533Z,54.43
2019-01-24T22:43:55.908Z,62.43
2019-01-24T22:49:00.142Z,53.73
2019-01-24T22:54:04.844Z,57.40
2019-01-24T22:59:09.181Z,49.33
2019-01-24T23:04:16.394Z,49.97
2019-01-24T23:09:20.729Z,52.70
2019-01-24T23:14:24.950Z,49.77
2019-01-24T23:19:29.251Z,52.27
2019-01-24T23:24:33.565Z,54.50
2019-01-24T23:29:37.809Z,50.43
2019-01-24T23:34:42.106Z,52.63
2019-01-24T23:39:51.738Z,50.60
2019-01-24T23:44:52.402Z,50.93
2019-01-24T23:49:56.816Z,53.80
2019-01-24T23:55:01.128Z,48.77
